• Join FlightAware (Why Join?)
  • Login
  • US Flag 
Trick or treat! (Boo!!) 
11:55AM EDT


 

Airport Tracker/Info


-or-


 

Live Flight TrackerFlight Track Log ✈ N770NC ✈ 12-Jun-2013 ✈ KDTW - KORD

Flight Track Log - Related Links

Times and Time Zones

All times are in EDT time to prevent confusion due to time zone crossing. See the N770NC flight status page for this flight to view local times or setup timezone preferences in your user account.

Time Position Orientation Groundspeed Altitude Reporting Facility
EDT Latitude Longitude Course Direction KTS MPH feet Rate Location/Type
07:45AM 42.1972 -83.3636 292° West 164 189 1,600  Level Cleveland Center
07:46AM 42.1544 -83.4122 220° Southwest 234 269 3,300 2,160 Climbing Cleveland Center
07:47AM 42.1153 -83.4803 232° Southwest 232 267 6,000 2,400 Climbing Cleveland Center
07:48AM 42.3274 -83.8524 292° West  Level FlightAware Approximate
07:48AM 42.1381 -83.5600 291° West 250 288 8,300  Level Cleveland Center
07:49AM 42.3644 -83.9758 292° West  Level FlightAware Approximate
07:49AM 42.1758 -83.6289 307° West 235 270 10,600  Level Cleveland Center
07:50AM 42.4015 -84.0993 292° West  Level FlightAware Approximate
07:50AM 42.2233 -83.7236 304° West 281 323 11,700  Level Cleveland Center
07:51AM 42.2706 -83.8269 302° West 305 351 13,500 1,860 Climbing Cleveland Center
07:52AM 42.3281 -83.9311 307° West 328 377 15,500 2,100 Climbing Cleveland Center
07:53AM 42.3831 -84.0494 302° West 356 410 17,800 2,400 Climbing Cleveland Center
07:54AM 42.4125 -84.1719 288° West 361 415 20,300 2,280 Climbing Cleveland Center
07:55AM 42.4103 -84.3125 269° West 357 411 22,400 1,800 Climbing Cleveland Center
07:56AM 42.4264 -84.4514 279° West 363 418 24,000 1,140 Climbing Cleveland Center
07:56AM 42.4314 -84.4872 281° West 377 434 24,000 420 Level Chicago Center
07:57AM 42.4389 -84.6358 274° West 389 448 24,600 960 Climbing Chicago Center
07:58AM 42.4397 -84.7833 270° West 391 450 26,000 1,260 Climbing Chicago Center
07:59AM 42.4311 -84.9275 265° West 387 445 27,300 960 Climbing Chicago Center
08:00AM 42.4400 -85.0942 274° West 373 429 28,000 300 Climbing Chicago Center
08:01AM 42.4475 -85.2394 274° West 380 437 28,000 -420 Level Chicago Center
08:02AM 42.4528 -85.3725 273° West 363 418 27,200 -1,740 Descending Chicago Center
08:03AM 42.4597 -85.4931 275° West 330 380 24,500 -2,520 Descending Chicago Center
08:04AM 42.4619 -85.6183 271° West 331 381 22,000 -1,980 Descending Chicago Center
08:05AM 42.4631 -85.7383 271° West 322 371 20,500 -1,020 Descending Chicago Center
08:06AM 42.4589 -85.8544 267° West 311 358 20,000 -300 Descending Chicago Center
08:08AM 42.4503 -85.9756 265° West 320 368 20,000  Level Chicago Center
08:09AM 42.4556 -86.1194 273° West 319 367 20,000  Level Chicago Center
08:10AM 42.4736 -86.2300 283° West 302 348 20,000  Level Chicago Center
08:11AM 42.5028 -86.3344 291° West 296 341 20,000 -300 Level Chicago Center
08:12AM 42.5106 -86.4447 276° West 295 339 19,400 -1,260 Descending Chicago Center
08:13AM 42.5158 -86.5558 274° West 296 341 17,400 -1,800 Descending Chicago Center
08:14AM 42.5242 -86.6653 276° West 291 335 15,800 -1,740 Descending Chicago Center
08:15AM 42.5244 -86.7672 270° West 286 329 13,900 -2,220 Descending Chicago Center
08:16AM 42.5022 -86.8842 256° West 271 312 11,300 -2,160 Descending Chicago Center
08:17AM 42.4847 -86.9847 257° West 273 314 9,500 -1,140 Descending Chicago Center
08:18AM 42.4642 -87.0789 254° West 265 305 9,000 -240 Descending Chicago Center
08:19AM 42.4425 -87.1744 253° West 265 305 9,100  Climbing Chicago Center
08:20AM 42.4131 -87.2686 247° West 274 315 9,000 -720 Descending Chicago Center
08:21AM 42.3828 -87.3586 246° West 268 308 7,700 -1,020 Descending Chicago Center
08:22AM 42.3542 -87.4606 249° West 257 296 7,000 -300 Descending Chicago Center
08:23AM 42.3125 -87.5481 237° Southwest 254 292 7,100  Climbing Chicago Center
08:24AM 42.2564 -87.6089 219° Southwest 261 300 7,100 -720 Level Chicago Center
08:25AM 42.1997 -87.6719 220° Southwest 266 306 5,700 -1,380 Descending Chicago Center
08:26AM 42.1428 -87.7372 220° Southwest 270 311 4,300 -1,320 Descending Chicago Center
08:27AM 42.0883 -87.7961 219° Southwest 257 296 3,000 -1,320 Descending Chicago Center
08:28AM 42.0344 -87.8567 220° Southwest 224 258 1,600 -1,380 Descending Chicago Center